Time;durP1;ratioP1;P1;durP2;ratioP2;P2;SDS_P1;SDS_P2;PMS_P1;PMS_P2;Temp;Humidity;BMP_temperature;BMP_pressure;BME280_temperature;BME280_humidity;BME280_pressure;Samples;Min_cycle;Max_cycle;Signal;HPM_P1;HPM_P2
2022/05/14 00:00:37;;;;;;;59.80;3.30;;;;;;;;;;5072141;28;20558;-74
2022/05/14 00:03:04;;;;;;;60.60;3.80;;;;;;;;;;5072076;28;20927;-75
2022/05/14 00:05:31;;;;;;;59.50;3.80;;;;;;;;;;5071657;28;20485;-75
2022/05/14 00:07:59;;;;;;;59.70;3.67;;;;;;;;;;5071262;28;20462;-75
2022/05/14 00:10:29;;;;;;;59.80;3.40;;;;;;;;;;5071759;28;20470;-75
2022/05/14 00:13:04;;;;;;;59.73;3.50;;;;;;;;;;5071684;28;20447;-74
2022/05/14 00:15:32;;;;;;;61.37;3.83;;;;;;;;;;5071989;28;20475;-75
2022/05/14 00:17:59;;;;;;;60.60;3.80;;;;;;;;;;5071236;28;20450;-74
2022/05/14 00:20:27;;;;;;;59.87;3.70;;;;;;;;;;5071827;28;20568;-74
2022/05/14 00:22:54;;;;;;;59.97;3.73;;;;;;;;;;5071711;28;20455;-74
2022/05/14 00:25:22;;;;;;;60.70;4.70;;;;;;;;;;5071794;28;21045;-74
2022/05/14 00:27:51;;;;;;;59.77;3.33;;;;;;;;;;5070865;28;20819;-74
2022/05/14 00:30:19;;;;;;;62.63;5.00;;;;;;;;;;5071747;28;20925;-74
2022/05/14 00:32:47;;;;;;;61.87;4.20;;;;;;;;;;5071706;28;20459;-74
2022/05/14 00:35:14;;;;;;;59.47;3.20;;;;;;;;;;5071695;28;20458;-74
2022/05/14 00:37:41;;;;;;;61.20;3.93;;;;;;;;;;5070707;28;20525;-75
2022/05/14 00:40:10;;;;;;;61.17;4.90;;;;;;;;;;5071351;28;20488;-74
2022/05/14 00:42:37;;;;;;;60.20;3.60;;;;;;;;;;5071385;28;20491;-74
2022/05/14 00:45:07;;;;;;;59.40;3.20;;;;;;;;;;5071601;28;20486;-74
2022/05/14 00:47:37;;;;;;;61.30;3.83;;;;;;;;;;5070707;28;20451;-74
2022/05/14 00:50:04;;;;;;;60.10;3.47;;;;;;;;;;5071325;28;20483;-74
2022/05/14 00:52:31;;;;;;;60.40;4.10;;;;;;;;;;5071491;28;20524;-74
2022/05/14 00:55:01;;;;;;;59.73;3.63;;;;;;;;;;5073627;28;20450;-74
2022/05/14 00:57:30;;;;;;;60.07;3.77;;;;;;;;;;5074777;28;20880;-74
2022/05/14 00:59:59;;;;;;;59.43;3.30;;;;;;;;;;5075337;28;20553;-74
2022/05/14 01:02:28;;;;;;;60.67;4.87;;;;;;;;;;5075507;28;20457;-74
2022/05/14 01:04:56;;;;;;;59.70;4.10;;;;;;;;;;5074974;28;20837;-74
2022/05/14 01:07:24;;;;;;;59.60;3.40;;;;;;;;;;5074333;28;20450;-74
2022/05/14 01:09:52;;;;;;;59.80;3.40;;;;;;;;;;5075054;28;20576;-74
2022/05/14 01:12:20;;;;;;;60.10;3.70;;;;;;;;;;5074935;28;20464;-74
2022/05/14 01:14:47;;;;;;;61.10;4.20;;;;;;;;;;5075161;28;20450;-74
2022/05/14 01:17:15;;;;;;;60.37;3.97;;;;;;;;;;5074307;28;20464;-74
2022/05/14 01:19:43;;;;;;;60.03;4.33;;;;;;;;;;5074715;28;20452;-74
2022/05/14 01:22:18;;;;;;;59.67;3.37;;;;;;;;;;5074597;28;20461;-74
2022/05/14 01:27:35;;;;;;;61.23;4.50;;;;;;;;;;5073985;28;20837;-74
2022/05/14 01:30:02;;;;;;;59.90;3.20;;;;;;;;;;5074460;28;20871;-74
2022/05/14 01:32:29;;;;;;;59.57;3.20;;;;;;;;;;5075057;28;20504;-74
2022/05/14 01:34:56;;;;;;;59.60;3.50;;;;;;;;;;5074996;28;20883;-74
2022/05/14 01:37:24;;;;;;;59.77;3.70;;;;;;;;;;5074018;28;20447;-74
2022/05/14 01:39:51;;;;;;;61.90;4.50;;;;;;;;;;5073827;28;21009;-74
2022/05/14 01:42:19;;;;;;;59.40;3.17;;;;;;;;;;5074428;28;20454;-74
2022/05/14 01:44:47;;;;;;;59.37;3.33;;;;;;;;;;5074108;28;20456;-74
2022/05/14 01:47:14;;;;;;;60.47;4.20;;;;;;;;;;5069545;28;20535;-74
2022/05/14 01:49:41;;;;;;;59.70;3.50;;;;;;;;;;5074193;28;20489;-74
2022/05/14 01:52:09;;;;;;;59.87;3.20;;;;;;;;;;5074198;28;20465;-74
2022/05/14 01:54:36;;;;;;;59.57;3.00;;;;;;;;;;5073985;28;20545;-74
2022/05/14 01:57:04;;;;;;;59.70;3.40;;;;;;;;;;5074461;28;20454;-74
2022/05/14 01:59:31;;;;;;;59.60;3.47;;;;;;;;;;5073833;28;20450;-74
2022/05/14 02:02:00;;;;;;;59.70;3.10;;;;;;;;;;5074039;28;20554;-74
2022/05/14 02:04:28;;;;;;;59.27;3.10;;;;;;;;;;5074050;28;20457;-74
2022/05/14 02:06:55;;;;;;;62.07;3.97;;;;;;;;;;5072680;28;20447;-74
2022/05/14 02:09:22;;;;;;;60.50;3.87;;;;;;;;;;5073243;28;20500;-74
2022/05/14 02:11:49;;;;;;;59.60;3.30;;;;;;;;;;5073968;28;20836;-74
2022/05/14 02:14:16;;;;;;;59.17;3.17;;;;;;;;;;5073963;28;20478;-74
2022/05/14 02:16:43;;;;;;;59.27;3.40;;;;;;;;;;5073866;28;20526;-74
2022/05/14 02:19:12;;;;;;;59.37;2.87;;;;;;;;;;5072925;28;20462;-74
2022/05/14 02:21:39;;;;;;;59.47;3.27;;;;;;;;;;5073582;28;21013;-74
2022/05/14 02:24:06;;;;;;;59.27;2.90;;;;;;;;;;5073281;28;20453;-74
2022/05/14 02:26:34;;;;;;;61.73;5.03;;;;;;;;;;5073600;28;20453;-74
2022/05/14 02:29:01;;;;;;;60.40;3.40;;;;;;;;;;5072959;28;20576;-74
2022/05/14 02:31:28;;;;;;;60.00;4.00;;;;;;;;;;5073428;28;20470;-74
2022/05/14 02:33:55;;;;;;;59.60;3.70;;;;;;;;;;5073519;28;20846;-74
2022/05/14 02:36:24;;;;;;;59.57;3.70;;;;;;;;;;5073295;28;20977;-74
2022/05/14 02:38:51;;;;;;;59.50;3.23;;;;;;;;;;5072462;28;20822;-74
2022/05/14 02:41:18;;;;;;;59.47;3.37;;;;;;;;;;5073632;28;20470;-74
2022/05/14 02:43:45;;;;;;;61.50;3.60;;;;;;;;;;5073264;28;20537;-74
2022/05/14 02:46:13;;;;;;;59.50;3.07;;;;;;;;;;5073350;28;20452;-74
2022/05/14 02:48:40;;;;;;;59.57;3.13;;;;;;;;;;5072594;28;20457;-74
2022/05/14 02:51:07;;;;;;;59.80;3.47;;;;;;;;;;5072767;28;20922;-74
2022/05/14 02:53:36;;;;;;;59.17;2.87;;;;;;;;;;5072937;28;20981;-74
2022/05/14 02:56:03;;;;;;;59.50;3.37;;;;;;;;;;5073109;28;20461;-74
2022/05/14 03:01:14;;;;;;;59.57;3.40;;;;;;;;;;5072945;28;20819;-74
2022/05/14 03:03:42;;;;;;;59.50;3.23;;;;;;;;;;5072748;28;20450;-74
2022/05/14 03:06:09;;;;;;;60.17;3.43;;;;;;;;;;5072795;28;20833;-74
2022/05/14 03:08:38;;;;;;;76.53;3.93;;;;;;;;;;5071925;28;20938;-74
2022/05/14 03:11:05;;;;;;;59.60;3.50;;;;;;;;;;5072557;28;20581;-74
2022/05/14 03:13:32;;;;;;;59.50;3.30;;;;;;;;;;5072494;28;20941;-74
2022/05/14 03:15:59;;;;;;;59.13;3.00;;;;;;;;;;5072414;28;20451;-75
2022/05/14 03:18:27;;;;;;;60.83;4.37;;;;;;;;;;5071620;28;20541;-74
2022/05/14 03:20:54;;;;;;;60.00;3.90;;;;;;;;;;5072480;28;20850;-74
2022/05/14 03:23:21;;;;;;;59.57;3.40;;;;;;;;;;5072500;28;20552;-74
2022/05/14 03:25:50;;;;;;;59.77;3.33;;;;;;;;;;5072290;28;20457;-74
2022/05/14 03:28:17;;;;;;;59.27;3.10;;;;;;;;;;5071619;28;20457;-74
2022/05/14 03:30:45;;;;;;;59.40;3.20;;;;;;;;;;5072031;28;20497;-75
2022/05/14 03:33:12;;;;;;;60.47;3.60;;;;;;;;;;5072137;28;20544;-74
2022/05/14 03:35:39;;;;;;;59.43;3.00;;;;;;;;;;5072445;28;20463;-74
2022/05/14 03:38:06;;;;;;;59.43;3.10;;;;;;;;;;5071577;28;20556;-74
2022/05/14 03:40:33;;;;;;;59.67;3.20;;;;;;;;;;5072017;28;20472;-74
2022/05/14 03:43:02;;;;;;;65.93;3.80;;;;;;;;;;5072310;28;20545;-74
2022/05/14 03:45:29;;;;;;;59.47;3.40;;;;;;;;;;5072036;28;20453;-74
2022/05/14 03:47:57;;;;;;;59.47;3.30;;;;;;;;;;5070916;28;20964;-74
2022/05/14 03:50:24;;;;;;;59.57;3.50;;;;;;;;;;5072061;28;20494;-74
2022/05/14 03:52:51;;;;;;;59.67;3.30;;;;;;;;;;5072630;28;20542;-74
2022/05/14 03:55:18;;;;;;;60.53;3.30;;;;;;;;;;5072001;28;20454;-74
2022/05/14 03:57:45;;;;;;;59.53;3.13;;;;;;;;;;5071298;28;20452;-75
2022/05/14 04:00:16;;;;;;;59.50;3.40;;;;;;;;;;5071877;28;20465;-74
2022/05/14 04:02:43;;;;;;;59.63;3.30;;;;;;;;;;5072079;28;20529;-74
2022/05/14 04:05:11;;;;;;;59.40;3.43;;;;;;;;;;5071770;28;20806;-74
2022/05/14 04:07:38;;;;;;;59.73;3.70;;;;;;;;;;5071058;28;20533;-74
2022/05/14 04:10:06;;;;;;;59.37;3.33;;;;;;;;;;5071523;28;20517;-74
2022/05/14 04:12:33;;;;;;;59.57;3.30;;;;;;;;;;5071898;28;20537;-74
2022/05/14 04:15:00;;;;;;;59.40;3.37;;;;;;;;;;5071855;28;20486;-74
2022/05/14 04:17:29;;;;;;;59.70;3.60;;;;;;;;;;5071162;28;20457;-74
2022/05/14 04:19:56;;;;;;;60.20;4.00;;;;;;;;;;5071819;28;20474;-74
2022/05/14 04:22:23;;;;;;;59.17;2.97;;;;;;;;;;5071566;28;20465;-74
2022/05/14 04:24:51;;;;;;;59.33;3.30;;;;;;;;;;5071519;28;20454;-74
2022/05/14 04:27:18;;;;;;;59.90;3.30;;;;;;;;;;5071102;28;20533;-74
2022/05/14 04:29:45;;;;;;;59.50;2.93;;;;;;;;;;5073421;28;20480;-74
2022/05/14 04:32:12;;;;;;;59.13;2.93;;;;;;;;;;5075741;28;20541;-74
2022/05/14 04:34:41;;;;;;;59.53;3.23;;;;;;;;;;5075825;28;20528;-74
2022/05/14 04:37:08;;;;;;;59.60;3.40;;;;;;;;;;5075205;28;20533;-74
2022/05/14 04:39:35;;;;;;;61.50;3.50;;;;;;;;;;5075200;28;20466;-74
2022/05/14 04:42:03;;;;;;;59.60;3.80;;;;;;;;;;5075506;28;20945;-74
2022/05/14 04:44:30;;;;;;;59.27;3.10;;;;;;;;;;5075496;28;20545;-74
2022/05/14 04:46:57;;;;;;;59.37;3.17;;;;;;;;;;5075716;28;20542;-74
2022/05/14 04:49:25;;;;;;;62.03;3.57;;;;;;;;;;5074531;28;20539;-74
2022/05/14 04:51:53;;;;;;;61.03;3.13;;;;;;;;;;5075335;28;20924;-74
2022/05/14 04:54:20;;;;;;;59.37;3.40;;;;;;;;;;5075477;28;20905;-74
2022/05/14 04:56:48;;;;;;;60.27;4.47;;;;;;;;;;5075262;28;20446;-74
2022/05/14 04:59:15;;;;;;;59.23;2.97;;;;;;;;;;5074507;28;21042;-74
2022/05/14 05:03:16;;;;;;;59.47;3.50;;;;;;;;;;5075241;28;20815;-74
2022/05/14 05:04:31;;;;;;;59.47;3.30;;;;;;;;;;5074709;28;20450;-74
2022/05/14 05:06:59;;;;;;;59.13;3.10;;;;;;;;;;5074974;28;20446;-74
2022/05/14 05:09:26;;;;;;;59.20;2.97;;;;;;;;;;5074044;28;20545;-74
2022/05/14 05:11:54;;;;;;;59.47;3.20;;;;;;;;;;5075294;28;20485;-74
2022/05/14 05:14:21;;;;;;;59.33;3.00;;;;;;;;;;5074942;28;20892;-74
2022/05/14 05:16:48;;;;;;;59.43;3.20;;;;;;;;;;5074835;28;20454;-74
2022/05/14 05:19:15;;;;;;;59.93;3.67;;;;;;;;;;5074007;28;20450;-74
2022/05/14 05:21:42;;;;;;;59.50;3.37;;;;;;;;;;5074552;28;20470;-74
2022/05/14 05:24:11;;;;;;;59.03;3.20;;;;;;;;;;5074538;28;20512;-74
2022/05/14 05:26:39;;;;;;;59.50;3.50;;;;;;;;;;5074683;28;20454;-74
2022/05/14 05:29:06;;;;;;;59.27;2.97;;;;;;;;;;5074368;28;20453;-74
2022/05/14 05:31:35;;;;;;;59.30;3.37;;;;;;;;;;5074295;28;21077;-74
2022/05/14 05:34:02;;;;;;;60.00;4.00;;;;;;;;;;5074569;28;20455;-74
2022/05/14 05:36:30;;;;;;;60.43;3.63;;;;;;;;;;5074689;28;20562;-75
2022/05/14 05:38:58;;;;;;;59.43;3.17;;;;;;;;;;5073969;28;20466;-74
2022/05/14 05:41:26;;;;;;;60.70;3.80;;;;;;;;;;5074124;28;20605;-74
2022/05/14 05:43:53;;;;;;;59.40;3.30;;;;;;;;;;5074309;28;20454;-74
2022/05/14 05:46:21;;;;;;;58.87;2.90;;;;;;;;;;5074642;28;20957;-74
2022/05/14 05:48:48;;;;;;;60.80;3.63;;;;;;;;;;5073654;28;20451;-74
2022/05/14 05:51:15;;;;;;;59.30;3.20;;;;;;;;;;5074432;28;20487;-74
2022/05/14 05:59:14;;;;;;;59.77;3.30;;;;;;;;;;5073630;28;20840;-74
2022/05/14 06:01:41;;;;;;;60.37;3.73;;;;;;;;;;5073995;28;20497;-74
2022/05/14 06:04:08;;;;;;;59.70;3.20;;;;;;;;;;5074185;28;20478;-74
2022/05/14 06:06:36;;;;;;;59.57;3.70;;;;;;;;;;5073893;28;20451;-74
2022/05/14 06:09:04;;;;;;;59.40;3.27;;;;;;;;;;5072904;28;20511;-74
2022/05/14 06:11:32;;;;;;;58.93;2.77;;;;;;;;;;5073878;28;20483;-74
2022/05/14 06:13:59;;;;;;;59.37;3.80;;;;;;;;;;5074039;28;20457;-74
2022/05/14 06:16:27;;;;;;;59.87;3.50;;;;;;;;;;5073838;28;20482;-74
2022/05/14 06:18:54;;;;;;;59.60;3.67;;;;;;;;;;5073067;28;20483;-74
2022/05/14 06:21:21;;;;;;;59.13;3.27;;;;;;;;;;5073288;28;20459;-74
2022/05/14 06:23:49;;;;;;;59.80;3.70;;;;;;;;;;5073906;28;20454;-74
2022/05/14 06:26:16;;;;;;;59.57;4.00;;;;;;;;;;5073556;28;20534;-74
2022/05/14 06:28:44;;;;;;;59.37;3.50;;;;;;;;;;5072672;28;20448;-74
2022/05/14 06:31:11;;;;;;;59.60;3.47;;;;;;;;;;5072920;28;20510;-74
2022/05/14 06:33:39;;;;;;;60.57;3.50;;;;;;;;;;5073296;28;20447;-75
2022/05/14 06:36:06;;;;;;;59.30;3.50;;;;;;;;;;5073112;28;20944;-74
2022/05/14 06:38:34;;;;;;;59.57;3.80;;;;;;;;;;5072735;28;20491;-74
2022/05/14 06:41:05;;;;;;;59.83;3.47;;;;;;;;;;5073414;28;20994;-74
2022/05/14 06:43:32;;;;;;;60.67;4.00;;;;;;;;;;5073787;28;20451;-74
2022/05/14 06:46:01;;;;;;;60.70;4.63;;;;;;;;;;5073127;28;20453;-75
2022/05/14 06:48:28;;;;;;;59.60;3.40;;;;;;;;;;5072277;28;20956;-74
2022/05/14 06:50:56;;;;;;;60.10;3.30;;;;;;;;;;5073160;28;20574;-75
2022/05/14 06:53:25;;;;;;;58.97;3.10;;;;;;;;;;5072473;28;20451;-75
2022/05/14 06:55:53;;;;;;;60.00;4.07;;;;;;;;;;5073078;28;20973;-74
2022/05/14 06:58:22;;;;;;;60.93;3.67;;;;;;;;;;5072229;28;20537;-74
2022/05/14 07:00:50;;;;;;;59.97;4.33;;;;;;;;;;5072690;28;20551;-74
2022/05/14 07:08:53;;;;;;;59.33;3.40;;;;;;;;;;5071952;28;20547;-75
2022/05/14 07:11:21;;;;;;;59.40;3.50;;;;;;;;;;5072187;28;20505;-75
2022/05/14 07:13:49;;;;;;;60.67;3.93;;;;;;;;;;5072527;28;20447;-74
2022/05/14 07:16:16;;;;;;;59.20;3.43;;;;;;;;;;5072606;28;20546;-74
2022/05/14 07:18:45;;;;;;;59.43;3.53;;;;;;;;;;5071690;28;20458;-74
2022/05/14 07:21:12;;;;;;;58.80;3.23;;;;;;;;;;5071731;28;20991;-75
2022/05/14 07:23:39;;;;;;;58.87;2.87;;;;;;;;;;5072763;28;20528;-74
2022/05/14 07:26:07;;;;;;;58.93;3.00;;;;;;;;;;5072356;28;20925;-75
2022/05/14 07:28:34;;;;;;;59.17;3.30;;;;;;;;;;5071649;28;20451;-74
2022/05/14 07:31:02;;;;;;;63.60;4.00;;;;;;;;;;5071820;28;20488;-74
2022/05/14 07:33:29;;;;;;;59.37;3.37;;;;;;;;;;5072054;28;20455;-75
2022/05/14 07:35:59;;;;;;;58.87;3.20;;;;;;;;;;5072523;28;20538;-75
2022/05/14 07:38:27;;;;;;;58.73;2.83;;;;;;;;;;5071124;28;20552;-75
2022/05/14 07:40:54;;;;;;;59.20;3.10;;;;;;;;;;5071949;28;20548;-74
2022/05/14 07:43:23;;;;;;;59.07;3.00;;;;;;;;;;5071945;28;20983;-75
2022/05/14 07:45:52;;;;;;;60.60;3.23;;;;;;;;;;5072212;28;20917;-74
2022/05/14 07:48:20;;;;;;;59.27;3.40;;;;;;;;;;5071312;28;21028;-75
2022/05/14 07:50:48;;;;;;;60.93;4.63;;;;;;;;;;5071826;28;20499;-74
2022/05/14 07:53:17;;;;;;;58.93;3.20;;;;;;;;;;5071852;28;20491;-74
2022/05/14 07:55:44;;;;;;;58.90;2.70;;;;;;;;;;5072150;28;20461;-74
2022/05/14 07:58:11;;;;;;;59.57;3.30;;;;;;;;;;5071074;28;20511;-76
2022/05/14 08:00:39;;;;;;;58.87;3.30;;;;;;;;;;5071503;28;20511;-74
2022/05/14 08:03:08;;;;;;;58.87;3.50;;;;;;;;;;5071573;28;20476;-75
2022/05/14 08:05:35;;;;;;;59.43;3.00;;;;;;;;;;5071512;28;20454;-74
2022/05/14 08:08:02;;;;;;;59.40;3.50;;;;;;;;;;5074652;28;20566;-78
2022/05/14 08:10:31;;;;;;;58.80;3.10;;;;;;;;;;5073486;28;20470;-79
2022/05/14 08:12:58;;;;;;;59.17;2.90;;;;;;;;;;5071958;28;20459;-76
2022/05/14 08:15:26;;;;;;;58.87;3.00;;;;;;;;;;5072074;28;20472;-76
2022/05/14 08:17:54;;;;;;;58.90;2.77;;;;;;;;;;5071345;28;20450;-75
2022/05/14 08:20:22;;;;;;;58.53;2.40;;;;;;;;;;5071341;28;20557;-76
2022/05/14 08:25:35;;;;;;;59.70;3.47;;;;;;;;;;5072167;28;20418;-75
2022/05/14 08:28:02;;;;;;;58.77;2.57;;;;;;;;;;5071112;28;20899;-76
2022/05/14 08:30:30;;;;;;;60.33;2.43;;;;;;;;;;5071498;28;20568;-76
2022/05/14 08:32:58;;;;;;;59.07;3.03;;;;;;;;;;5071793;28;20451;-75
2022/05/14 08:35:25;;;;;;;58.97;2.93;;;;;;;;;;5071538;28;20450;-76
2022/05/14 08:37:53;;;;;;;58.77;2.70;;;;;;;;;;5070502;28;20911;-76
2022/05/14 08:40:22;;;;;;;59.10;3.07;;;;;;;;;;5071407;28;20500;-76
2022/05/14 08:42:52;;;;;;;58.90;2.80;;;;;;;;;;5071382;28;20483;-76
2022/05/14 08:45:20;;;;;;;58.80;2.80;;;;;;;;;;5071571;28;20468;-76
2022/05/14 08:47:55;;;;;;;61.67;3.00;;;;;;;;;;5070746;28;20835;-75
2022/05/14 08:50:24;;;;;;;58.47;2.80;;;;;;;;;;5071160;28;20834;-76
2022/05/14 08:52:51;;;;;;;59.10;2.90;;;;;;;;;;5071254;28;20933;-76
2022/05/14 08:55:19;;;;;;;58.90;2.90;;;;;;;;;;5071903;28;20481;-76
2022/05/14 08:57:50;;;;;;;58.80;3.00;;;;;;;;;;5070383;28;20529;-75
2022/05/14 09:00:19;;;;;;;58.67;2.70;;;;;;;;;;5071286;28;20498;-76
2022/05/14 09:02:48;;;;;;;58.67;2.80;;;;;;;;;;5071208;28;20870;-75
2022/05/14 09:05:17;;;;;;;59.70;2.80;;;;;;;;;;5071302;28;20487;-76
2022/05/14 09:07:45;;;;;;;59.30;3.00;;;;;;;;;;5070342;28;20505;-76
2022/05/14 09:10:21;;;;;;;58.87;2.90;;;;;;;;;;5070594;28;20471;-76
2022/05/14 09:12:51;;;;;;;58.70;2.70;;;;;;;;;;5071027;28;20483;-76
2022/05/14 09:15:19;;;;;;;58.93;3.07;;;;;;;;;;5072764;28;20534;-76
2022/05/14 09:17:46;;;;;;;58.80;2.90;;;;;;;;;;5074346;28;20479;-76
2022/05/14 09:20:23;;;;;;;58.87;2.80;;;;;;;;;;5074684;28;20464;-76
2022/05/14 09:22:54;;;;;;;58.97;2.60;;;;;;;;;;5074652;28;20457;-76
2022/05/14 09:25:24;;;;;;;59.00;2.83;;;;;;;;;;5074816;28;20458;-75
2022/05/14 09:27:54;;;;;;;58.57;2.70;;;;;;;;;;5074065;28;20457;-76
2022/05/14 09:30:28;;;;;;;59.40;3.07;;;;;;;;;;5074705;28;20481;-75
2022/05/14 09:32:55;;;;;;;59.10;2.90;;;;;;;;;;5073862;28;20488;-76
2022/05/14 09:35:23;;;;;;;59.80;2.80;;;;;;;;;;5074310;28;20535;-76
2022/05/14 09:37:51;;;;;;;58.57;2.50;;;;;;;;;;5073454;28;20449;-76
2022/05/14 09:40:23;;;;;;;58.47;2.53;;;;;;;;;;5074337;28;20987;-76
2022/05/14 09:42:52;;;;;;;58.90;2.67;;;;;;;;;;5074563;28;20487;-76
2022/05/14 09:45:22;;;;;;;58.87;2.90;;;;;;;;;;5074235;28;20485;-76
2022/05/14 09:47:50;;;;;;;59.13;2.90;;;;;;;;;;5073410;28;21070;-76
2022/05/14 09:50:19;;;;;;;58.53;2.70;;;;;;;;;;5074233;28;20474;-76
2022/05/14 09:52:54;;;;;;;59.60;3.10;;;;;;;;;;5074118;28;20485;-75
2022/05/14 09:55:23;;;;;;;59.60;3.03;;;;;;;;;;5074446;28;20823;-76
2022/05/14 09:57:52;;;;;;;58.97;2.73;;;;;;;;;;5073662;28;20447;-76
2022/05/14 10:00:22;;;;;;;60.70;3.30;;;;;;;;;;5073600;28;20526;-76
2022/05/14 10:02:55;;;;;;;58.87;2.53;;;;;;;;;;5073968;28;20452;-75
2022/05/14 10:05:29;;;;;;;59.00;2.80;;;;;;;;;;5073830;28;20936;-76
2022/05/14 10:07:58;;;;;;;58.70;2.63;;;;;;;;;;5073318;28;20521;-76
2022/05/14 10:10:34;;;;;;;58.37;2.40;;;;;;;;;;5073763;28;20506;-76
2022/05/14 10:13:03;;;;;;;59.03;2.50;;;;;;;;;;5073830;28;20518;-76
2022/05/14 10:15:37;;;;;;;58.60;2.50;;;;;;;;;;5073638;28;20452;-74
2022/05/14 10:18:09;;;;;;;59.00;2.40;;;;;;;;;;5073163;28;20497;-75
2022/05/14 10:20:39;;;;;;;61.10;2.73;;;;;;;;;;5073593;28;20521;-75
2022/05/14 10:28:45;;;;;;;57.73;2.40;;;;;;;;;;5072679;28;20433;-75
2022/05/14 10:31:16;;;;;;;57.67;2.10;;;;;;;;;;5073480;28;20844;-75
2022/05/14 10:33:45;;;;;;;57.77;2.30;;;;;;;;;;5073483;28;20451;-74
2022/05/14 10:36:16;;;;;;;58.40;2.40;;;;;;;;;;5073357;28;20487;-75
2022/05/14 10:38:46;;;;;;;57.40;2.27;;;;;;;;;;5072481;28;20982;-76
2022/05/14 10:41:15;;;;;;;57.90;2.33;;;;;;;;;;5073309;28;20471;-76
2022/05/14 10:43:45;;;;;;;57.37;1.90;;;;;;;;;;5073183;28;20443;-76
2022/05/14 10:46:13;;;;;;;57.67;2.10;;;;;;;;;;5073166;28;20538;-76
2022/05/14 10:48:44;;;;;;;57.40;2.20;;;;;;;;;;5072432;28;20538;-76
2022/05/14 10:51:20;;;;;;;57.80;2.10;;;;;;;;;;5073061;28;20546;-75
2022/05/14 10:53:47;;;;;;;57.40;2.00;;;;;;;;;;5072995;28;20454;-75
2022/05/14 10:56:17;;;;;;;57.13;1.97;;;;;;;;;;5072970;28;20450;-76
2022/05/14 10:58:55;;;;;;;57.87;1.97;;;;;;;;;;5072154;28;20542;-76
2022/05/14 11:01:28;;;;;;;57.23;2.00;;;;;;;;;;5072913;28;20553;-75
2022/05/14 11:03:56;;;;;;;57.20;2.00;;;;;;;;;;5072900;28;20526;-75
2022/05/14 11:06:30;;;;;;;57.37;2.30;;;;;;;;;;5072699;28;20955;-75
2022/05/14 11:08:57;;;;;;;58.97;1.90;;;;;;;;;;5071934;28;20537;-75
2022/05/14 11:11:26;;;;;;;57.17;2.03;;;;;;;;;;5072654;28;20568;-76
2022/05/14 11:14:01;;;;;;;56.97;1.83;;;;;;;;;;5072635;28;20443;-75
2022/05/14 11:16:39;;;;;;;57.90;2.20;;;;;;;;;;5072550;28;20495;-75
2022/05/14 11:19:07;;;;;;;56.83;1.87;;;;;;;;;;5072155;28;20489;-75
2022/05/14 11:21:38;;;;;;;57.07;2.13;;;;;;;;;;5072239;28;20551;-74
2022/05/14 11:24:05;;;;;;;57.37;1.97;;;;;;;;;;5072346;28;20455;-75
2022/05/14 11:26:33;;;;;;;57.07;2.13;;;;;;;;;;5072299;28;20447;-75
2022/05/14 11:29:01;;;;;;;57.03;1.80;;;;;;;;;;5071676;28;20512;-75
2022/05/14 11:31:30;;;;;;;56.87;1.80;;;;;;;;;;5072477;28;20510;-75
2022/05/14 11:33:59;;;;;;;57.47;2.03;;;;;;;;;;5071836;28;20536;-75
2022/05/14 11:36:28;;;;;;;57.07;1.90;;;;;;;;;;5072931;28;20447;-79
2022/05/14 11:39:11;;;;;;;57.70;1.83;;;;;;;;;;5073861;28;20562;-78
2022/05/14 11:41:41;;;;;;;57.40;2.00;;;;;;;;;;5072895;28;20881;-74
2022/05/14 11:44:08;;;;;;;57.50;2.00;;;;;;;;;;5072303;28;20800;-75
2022/05/14 11:46:41;;;;;;;57.73;2.20;;;;;;;;;;5071848;28;20504;-75
2022/05/14 11:49:11;;;;;;;57.20;1.80;;;;;;;;;;5071625;28;20526;-74
2022/05/14 11:51:41;;;;;;;57.17;1.80;;;;;;;;;;5071931;28;20571;-74
2022/05/14 11:54:11;;;;;;;57.20;1.80;;;;;;;;;;5071872;28;20451;-75
2022/05/14 11:56:41;;;;;;;57.30;2.53;;;;;;;;;;5071883;28;20542;-75
2022/05/14 11:59:11;;;;;;;56.97;1.83;;;;;;;;;;5071145;28;20450;-75
2022/05/14 12:01:40;;;;;;;56.87;1.90;;;;;;;;;;5071728;28;21066;-75
2022/05/14 12:04:10;;;;;;;57.00;1.90;;;;;;;;;;5071900;28;20534;-75
2022/05/14 12:06:48;;;;;;;56.97;2.00;;;;;;;;;;5071790;28;20526;-75
2022/05/14 12:09:24;;;;;;;57.90;1.97;;;;;;;;;;5070776;28;20447;-75
2022/05/14 12:11:56;;;;;;;57.10;2.20;;;;;;;;;;5071875;28;20506;-75
2022/05/14 12:14:29;;;;;;;57.20;1.80;;;;;;;;;;5071865;28;20450;-75
2022/05/14 12:16:57;;;;;;;56.77;1.70;;;;;;;;;;5071744;28;20534;-75
2022/05/14 12:19:25;;;;;;;57.50;2.17;;;;;;;;;;5070867;28;20974;-75
2022/05/14 12:21:54;;;;;;;56.97;2.00;;;;;;;;;;5071509;28;20915;-75
2022/05/14 12:24:24;;;;;;;57.27;1.80;;;;;;;;;;5071814;28;20535;-75
2022/05/14 12:26:51;;;;;;;57.27;1.93;;;;;;;;;;5071765;28;20459;-74
2022/05/14 12:29:21;;;;;;;57.27;2.30;;;;;;;;;;5070967;28;20443;-75
2022/05/14 12:34:41;;;;;;;56.87;2.07;;;;;;;;;;5071713;28;20431;-75
2022/05/14 12:37:17;;;;;;;57.20;1.97;;;;;;;;;;5071446;28;20542;-75
2022/05/14 12:39:46;;;;;;;57.17;2.10;;;;;;;;;;5071539;28;20459;-75
2022/05/14 12:42:14;;;;;;;57.93;2.40;;;;;;;;;;5071331;28;20631;-75
2022/05/14 12:44:42;;;;;;;57.00;1.97;;;;;;;;;;5071332;28;20470;-75
2022/05/14 12:47:10;;;;;;;57.10;2.40;;;;;;;;;;5070652;28;20449;-76
2022/05/14 12:49:39;;;;;;;56.77;1.70;;;;;;;;;;5071437;28;20475;-75
2022/05/14 12:52:09;;;;;;;57.13;2.17;;;;;;;;;;5075488;28;20447;-74
2022/05/14 12:54:37;;;;;;;57.60;2.37;;;;;;;;;;5075240;28;20475;-74
2022/05/14 12:57:07;;;;;;;57.20;2.10;;;;;;;;;;5075272;28;20451;-74
2022/05/14 12:59:36;;;;;;;56.67;2.17;;;;;;;;;;5074609;28;20493;-75
2022/05/14 13:02:05;;;;;;;56.90;2.00;;;;;;;;;;5074936;28;21042;-74
2022/05/14 13:04:34;;;;;;;56.87;1.90;;;;;;;;;;5075255;28;20534;-75
2022/05/14 13:07:03;;;;;;;56.97;1.77;;;;;;;;;;5074974;28;20453;-75
2022/05/14 13:09:30;;;;;;;57.00;2.23;;;;;;;;;;5074576;28;20546;-75
2022/05/14 13:11:59;;;;;;;56.87;1.90;;;;;;;;;;5074809;28;20800;-74
2022/05/14 13:14:29;;;;;;;57.00;1.90;;;;;;;;;;5075256;28;20820;-74
2022/05/14 13:16:58;;;;;;;57.07;2.00;;;;;;;;;;5075052;28;20447;-74
2022/05/14 13:19:33;;;;;;;58.20;2.30;;;;;;;;;;5074443;28;20446;-75
2022/05/14 13:22:00;;;;;;;57.13;1.70;;;;;;;;;;5074804;28;20478;-75
2022/05/14 13:24:28;;;;;;;57.10;1.80;;;;;;;;;;5074858;28;20450;-74
2022/05/14 13:26:56;;;;;;;57.20;1.90;;;;;;;;;;5074781;28;20470;-74
2022/05/14 13:29:30;;;;;;;57.23;1.93;;;;;;;;;;5074142;28;20542;-74
2022/05/14 13:32:08;;;;;;;56.97;1.90;;;;;;;;;;5074819;28;20456;-74
2022/05/14 13:37:28;;;;;;;56.70;2.20;;;;;;;;;;5074178;28;20946;-74
2022/05/14 13:39:56;;;;;;;57.20;1.90;;;;;;;;;;5074348;28;20917;-75
2022/05/14 13:42:25;;;;;;;57.30;2.00;;;;;;;;;;5074317;28;20447;-74
2022/05/14 13:44:58;;;;;;;56.77;1.90;;;;;;;;;;5074346;28;20534;-74
2022/05/14 13:47:25;;;;;;;57.80;2.40;;;;;;;;;;5073502;28;20538;-75
2022/05/14 13:49:54;;;;;;;57.17;1.80;;;;;;;;;;5074420;28;20467;-74
2022/05/14 13:52:28;;;;;;;57.17;1.90;;;;;;;;;;5074186;28;20968;-75
2022/05/14 13:55:06;;;;;;;57.07;1.77;;;;;;;;;;5074276;28;20827;-74
2022/05/14 13:57:35;;;;;;;56.97;1.90;;;;;;;;;;5073377;28;20482;-74
2022/05/14 14:00:08;;;;;;;57.20;2.17;;;;;;;;;;5073909;28;20995;-74
2022/05/14 14:02:35;;;;;;;57.17;2.07;;;;;;;;;;5073858;28;20894;-75
2022/05/14 14:05:04;;;;;;;57.40;2.07;;;;;;;;;;5074036;28;20819;-74
2022/05/14 14:07:33;;;;;;;57.97;1.90;;;;;;;;;;5073385;28;20630;-74
2022/05/14 14:10:00;;;;;;;57.07;1.90;;;;;;;;;;5073767;28;20987;-75
2022/05/14 14:12:27;;;;;;;58.33;1.90;;;;;;;;;;5074132;28;20541;-74
2022/05/14 14:14:54;;;;;;;57.27;2.20;;;;;;;;;;5073957;28;20444;-74
2022/05/14 14:17:23;;;;;;;57.37;2.17;;;;;;;;;;5073216;28;20541;-74
2022/05/14 14:19:50;;;;;;;57.57;2.10;;;;;;;;;;5073764;28;20474;-74
2022/05/14 14:22:19;;;;;;;57.90;2.33;;;;;;;;;;5073656;28;20866;-75
2022/05/14 14:24:49;;;;;;;57.57;2.13;;;;;;;;;;5073486;28;20874;-74
2022/05/14 14:27:17;;;;;;;57.57;2.50;;;;;;;;;;5072794;28;20469;-74
2022/05/14 14:29:44;;;;;;;57.13;2.03;;;;;;;;;;5073355;28;20493;-75
2022/05/14 14:32:11;;;;;;;57.37;2.13;;;;;;;;;;5073656;28;20445;-75
2022/05/14 14:34:40;;;;;;;57.07;1.70;;;;;;;;;;5073630;28;20579;-74
2022/05/14 14:37:07;;;;;;;57.60;2.60;;;;;;;;;;5072950;28;20529;-75
2022/05/14 14:39:34;;;;;;;57.17;1.90;;;;;;;;;;5072824;28;20994;-75
2022/05/14 14:42:02;;;;;;;58.50;1.90;;;;;;;;;;5073227;28;20542;-74
2022/05/14 14:44:29;;;;;;;57.33;2.20;;;;;;;;;;5073049;28;20576;-74
2022/05/14 14:46:58;;;;;;;57.40;2.10;;;;;;;;;;5073303;28;20800;-74
2022/05/14 14:49:25;;;;;;;57.20;1.93;;;;;;;;;;5072512;28;20443;-74
2022/05/14 14:51:54;;;;;;;57.27;1.93;;;;;;;;;;5072884;28;20474;-75
2022/05/14 14:54:21;;;;;;;57.70;2.10;;;;;;;;;;5073021;28;20526;-75
2022/05/14 14:56:48;;;;;;;57.07;2.03;;;;;;;;;;5073038;28;20535;-74
2022/05/14 14:59:15;;;;;;;57.07;1.80;;;;;;;;;;5072226;28;21024;-74
2022/05/14 15:01:46;;;;;;;57.03;1.73;;;;;;;;;;5072877;28;20464;-74
2022/05/14 15:04:15;;;;;;;58.27;2.17;;;;;;;;;;5072567;28;20553;-75
2022/05/14 15:06:42;;;;;;;57.50;1.70;;;;;;;;;;5073118;28;20456;-74
2022/05/14 15:09:12;;;;;;;57.47;1.67;;;;;;;;;;5072328;28;20451;-74